Time;durP1;ratioP1;P1;durP2;ratioP2;P2;SDS_P1;SDS_P2;PMS_P1;PMS_P2;Temp;Humidity;BMP_temperature;BMP_pressure;BME280_temperature;BME280_humidity;BME280_pressure;Samples;Min_cycle;Max_cycle;Signal;HPM_P1;HPM_P2
2021/12/03 00:01:18;;;;;;;6.45;4.10;;;;;;;4.10;66.87;92482.34;5098203;28;20111;-43
2021/12/03 00:03:45;;;;;;;5.68;4.05;;;;;;;4.04;67.04;92484.47;5098366;28;20063;-44
2021/12/03 00:06:11;;;;;;;5.63;4.20;;;;;;;3.92;68.17;92480.50;5098644;28;20526;-41
2021/12/03 00:08:36;;;;;;;8.48;4.70;;;;;;;3.84;68.24;92491.34;5096295;28;20036;-41
2021/12/03 00:11:03;;;;;;;8.38;4.30;;;;;;;3.78;68.69;92492.72;5097470;28;20158;-40
2021/12/03 00:13:32;;;;;;;13.88;6.45;;;;;;;3.76;68.66;92497.97;5097648;28;20027;-39
2021/12/03 00:15:58;;;;;;;8.05;5.10;;;;;;;3.69;69.08;92487.69;5096232;28;20165;-41
2021/12/03 00:18:24;;;;;;;8.32;4.25;;;;;;;3.70;68.60;92494.63;5099783;28;20498;-42
2021/12/03 00:20:50;;;;;;;6.60;5.30;;;;;;;3.46;69.71;92483.94;5098072;28;20034;-45
2021/12/03 00:23:16;;;;;;;11.70;4.80;;;;;;;3.41;69.91;92487.50;5101197;28;20513;-42
2021/12/03 00:25:42;;;;;;;7.47;4.85;;;;;;;3.14;70.09;92456.06;5100573;28;20112;-43
2021/12/03 00:28:08;;;;;;;9.48;5.53;;;;;;;3.03;71.45;92482.25;5100575;28;20131;-40
2021/12/03 00:30:34;;;;;;;11.52;5.35;;;;;;;3.12;71.38;92475.66;5101471;28;20118;-42
2021/12/03 00:33:00;;;;;;;5.50;4.15;;;;;;;3.05;72.09;92490.66;5103092;28;20090;-43
2021/12/03 00:35:26;;;;;;;7.18;4.72;;;;;;;3.05;71.42;92479.75;5101053;28;20042;-44
2021/12/03 00:37:52;;;;;;;5.32;3.90;;;;;;;3.06;71.98;92467.59;5102060;28;20130;-41
2021/12/03 00:40:23;;;;;;;7.25;5.18;;;;;;;2.87;71.44;92428.78;5100202;28;20034;-40
2021/12/03 00:42:48;;;;;;;7.90;4.82;;;;;;;3.07;71.51;92466.31;5101454;28;20497;-40
2021/12/03 00:45:15;;;;;;;11.00;6.30;;;;;;;3.12;71.54;92475.66;5099640;28;20087;-38
2021/12/03 00:47:42;;;;;;;9.23;5.57;;;;;;;3.09;72.29;92479.44;5100222;28;20027;-39
2021/12/03 00:50:10;;;;;;;14.50;5.72;;;;;;;3.06;72.34;92488.66;5100570;28;20497;-43
2021/12/03 00:52:36;;;;;;;10.82;6.07;;;;;;;2.93;72.86;92473.03;5102807;28;20031;-41
2021/12/03 00:55:03;;;;;;;10.98;5.80;;;;;;;2.98;72.47;92466.75;5101933;28;20541;-40
2021/12/03 00:57:29;;;;;;;6.97;5.22;;;;;;;3.11;71.77;92465.28;5101167;28;20034;-41
2021/12/03 00:59:54;;;;;;;13.75;6.28;;;;;;;3.15;71.21;92452.06;5098956;28;20115;-40
2021/12/03 01:02:20;;;;;;;8.55;4.45;;;;;;;3.21;70.47;92449.97;5101908;28;20034;-41
2021/12/03 01:04:46;;;;;;;8.38;5.03;;;;;;;3.27;70.75;92453.34;5102718;27;20032;-40
2021/12/03 01:07:15;;;;;;;7.63;4.35;;;;;;;3.29;70.24;92456.97;5099689;28;20036;-41
2021/12/03 01:09:42;;;;;;;7.00;3.95;;;;;;;3.30;70.55;92460.44;5101535;28;20736;-40
2021/12/03 01:12:08;;;;;;;7.10;4.55;;;;;;;3.32;70.74;92453.22;5098487;28;20028;-38
2021/12/03 01:14:36;;;;;;;7.25;3.42;;;;;;;3.38;70.58;92436.75;5099668;28;20441;-39
2021/12/03 01:17:02;;;;;;;6.43;4.60;;;;;;;3.38;70.54;92432.00;5100120;28;20137;-38
2021/12/03 01:19:27;;;;;;;6.20;4.32;;;;;;;3.53;69.69;92436.94;5100064;28;20035;-39
2021/12/03 01:21:53;;;;;;;10.68;4.68;;;;;;;3.54;70.16;92454.75;5101932;28;20038;-42
2021/12/03 01:24:18;;;;;;;5.88;3.78;;;;;;;3.58;69.82;92457.91;5101957;28;20724;-41
2021/12/03 01:26:45;;;;;;;5.63;3.85;;;;;;;3.56;69.85;92471.34;5100433;28;20028;-40
2021/12/03 01:29:11;;;;;;;8.40;4.47;;;;;;;3.49;70.19;92459.06;5098259;28;20100;-42
2021/12/03 01:31:37;;;;;;;46.83;6.45;;;;;;;3.47;70.33;92464.31;5100720;28;20028;-44
2021/12/03 01:34:03;;;;;;;5.00;3.78;;;;;;;3.39;70.83;92476.41;5097392;28;20065;-41
2021/12/03 01:36:29;;;;;;;4.93;3.30;;;;;;;3.61;69.53;92452.13;5100235;28;20031;-41
2021/12/03 01:38:55;;;;;;;4.68;3.50;;;;;;;3.73;68.67;92439.72;5099026;28;20104;-41
2021/12/03 01:41:20;;;;;;;3.28;2.70;;;;;;;4.21;67.64;92459.50;5100110;28;20113;-39
2021/12/03 01:43:46;;;;;;;5.20;2.97;;;;;;;4.32;67.19;92451.78;5099658;27;20035;-43
2021/12/03 01:46:13;;;;;;;4.68;3.20;;;;;;;4.54;66.44;92454.00;5100442;28;20028;-42
2021/12/03 01:48:39;;;;;;;5.07;3.67;;;;;;;4.59;66.11;92444.19;5099766;28;20032;-42
2021/12/03 01:51:05;;;;;;;3.88;3.15;;;;;;;4.52;66.00;92445.59;5101254;27;20408;-42
2021/12/03 01:53:34;;;;;;;3.83;2.60;;;;;;;4.70;66.55;92418.59;5099945;28;20020;-38
2021/12/03 01:56:04;;;;;;;6.28;3.55;;;;;;;4.84;65.37;92430.88;5099903;28;20036;-39
2021/12/03 01:58:30;;;;;;;4.38;3.42;;;;;;;4.56;66.03;92421.41;5099081;28;20028;-39
2021/12/03 02:00:59;;;;;;;4.38;3.60;;;;;;;4.50;66.35;92420.06;5101039;28;20032;-38
2021/12/03 02:03:29;;;;;;;6.35;4.38;;;;;;;4.36;66.90;92413.94;5098971;28;20027;-38
2021/12/03 02:05:55;;;;;;;2.72;2.08;;;;;;;4.71;66.35;92420.78;5098621;28;20035;-39
2021/12/03 02:08:21;;;;;;;4.57;2.88;;;;;;;4.88;65.91;92414.88;5100195;28;20031;-38
2021/12/03 02:10:47;;;;;;;6.78;4.18;;;;;;;5.10;65.68;92423.22;5100509;28;20042;-38
2021/12/03 02:13:13;;;;;;;7.88;4.63;;;;;;;5.11;65.00;92419.22;5099376;28;20031;-38
2021/12/03 02:15:40;;;;;;;7.03;4.57;;;;;;;4.98;64.97;92413.13;5098834;28;20489;-37
2021/12/03 02:18:07;;;;;;;44.63;21.25;;;;;;;4.82;66.05;92417.03;5098157;28;20107;-38
2021/12/03 02:20:33;;;;;;;2.78;2.28;;;;;;;5.11;65.38;92405.53;5099563;28;20023;-37
2021/12/03 02:22:59;;;;;;;3.25;2.78;;;;;;;5.13;65.57;92413.22;5099180;28;20028;-38
2021/12/03 02:25:25;;;;;;;3.22;2.83;;;;;;;5.22;64.76;92404.50;5098386;28;20103;-37
2021/12/03 02:27:54;;;;;;;4.78;3.45;;;;;;;4.96;64.86;92415.66;5100045;28;20026;-38
2021/12/03 02:30:21;;;;;;;3.20;2.63;;;;;;;5.04;65.55;92405.50;5098887;28;20457;-38
2021/12/03 02:32:49;;;;;;;4.57;3.30;;;;;;;5.03;65.46;92412.22;5098059;28;20039;-37
2021/12/03 02:35:16;;;;;;;4.22;3.03;;;;;;;5.22;64.79;92396.28;5100068;28;20028;-37
2021/12/03 02:37:41;;;;;;;5.45;3.00;;;;;;;5.20;65.12;92380.41;5099758;28;20042;-37
2021/12/03 02:40:08;;;;;;;6.47;3.10;;;;;;;5.28;64.86;92391.41;5101017;28;20031;-37
2021/12/03 02:42:33;;;;;;;4.15;3.08;;;;;;;5.27;64.96;92398.13;5098402;28;20035;-37
2021/12/03 02:44:59;;;;;;;3.47;2.80;;;;;;;5.05;65.21;92382.34;5096870;28;20031;-37
2021/12/03 02:47:25;;;;;;;4.38;3.10;;;;;;;5.11;65.39;92402.09;5099080;28;20035;-37
2021/12/03 02:49:50;;;;;;;4.70;2.40;;;;;;;5.20;64.48;92380.41;5100705;28;20437;-37
2021/12/03 02:52:16;;;;;;;5.85;3.63;;;;;;;4.96;65.29;92364.41;5098779;28;20035;-37
2021/12/03 02:54:42;;;;;;;3.22;2.70;;;;;;;5.20;64.81;92387.88;5097760;28;20542;-37
2021/12/03 02:57:07;;;;;;;3.80;3.03;;;;;;;5.22;64.92;92379.88;5099045;28;20035;-38
2021/12/03 02:59:33;;;;;;;3.78;2.42;;;;;;;5.38;64.65;92387.63;5097608;28;20031;-37
2021/12/03 03:02:00;;;;;;;4.97;3.00;;;;;;;5.37;65.04;92402.56;5097806;28;20035;-38
2021/12/03 03:04:26;;;;;;;5.43;3.08;;;;;;;5.27;64.33;92401.63;5098640;28;20024;-38
2021/12/03 03:06:51;;;;;;;6.07;4.25;;;;;;;5.26;64.79;92399.44;5099373;28;20503;-38
2021/12/03 03:09:17;;;;;;;4.07;3.17;;;;;;;5.10;64.67;92379.47;5097769;28;20470;-38
2021/12/03 03:11:42;;;;;;;3.13;2.58;;;;;;;5.36;64.40;92392.91;5097758;28;20673;-42
2021/12/03 03:14:08;;;;;;;4.05;2.83;;;;;;;5.40;64.42;92395.28;5098159;28;20413;-41
2021/12/03 03:16:34;;;;;;;5.88;3.17;;;;;;;5.27;65.05;92398.88;5097522;28;20436;-41
2021/12/03 03:19:15;;;;;;;6.03;3.65;;;;;;;5.14;65.41;92404.47;5098329;28;20023;-47
2021/12/03 03:21:41;;;;;;;4.18;3.15;;;;;;;5.12;65.59;92401.53;5099590;28;20428;-41
2021/12/03 03:24:08;;;;;;;6.50;2.83;;;;;;;5.11;65.69;92404.81;5096017;28;20525;-42
2021/12/03 03:26:38;;;;;;;5.57;3.22;;;;;;;5.13;65.86;92392.03;5098047;28;20024;-40
2021/12/03 03:29:05;;;;;;;3.58;2.85;;;;;;;5.18;65.68;92384.97;5097707;28;20404;-40
2021/12/03 03:31:34;;;;;;;6.05;3.33;;;;;;;5.21;65.62;92398.31;5098846;28;20020;-41
2021/12/03 03:34:01;;;;;;;4.40;3.03;;;;;;;5.26;65.70;92394.66;5098127;28;20035;-41
2021/12/03 03:36:27;;;;;;;4.07;2.72;;;;;;;5.34;65.35;92403.66;5098496;28;20135;-38
2021/12/03 03:38:53;;;;;;;5.32;2.80;;;;;;;5.28;65.52;92400.31;5097202;28;20024;-40
2021/12/03 03:41:18;;;;;;;4.28;2.70;;;;;;;5.25;65.79;92409.63;5098229;28;20161;-39
2021/12/03 03:43:44;;;;;;;4.00;2.97;;;;;;;5.35;65.35;92396.91;5097436;28;20023;-40
2021/12/03 03:46:10;;;;;;;6.13;3.47;;;;;;;5.19;65.17;92389.16;5100231;28;20160;-39
2021/12/03 03:48:35;;;;;;;3.30;2.88;;;;;;;5.37;65.27;92415.53;5097420;28;20075;-40
2021/12/03 03:51:01;;;;;;;3.47;2.38;;;;;;;5.50;64.89;92403.72;5099620;28;20019;-42
2021/12/03 03:53:26;;;;;;;4.15;2.70;;;;;;;5.36;64.71;92373.00;5097145;28;20027;-44
2021/12/03 03:55:52;;;;;;;5.43;3.28;;;;;;;5.36;65.55;92394.91;5100276;28;20032;-41
2021/12/03 03:58:18;;;;;;;9.07;6.25;;;;;;;5.26;65.68;92413.09;5100488;28;20045;-39
2021/12/03 04:00:45;;;;;;;4.32;2.85;;;;;;;5.18;65.73;92398.63;5101318;28;20429;-40
2021/12/03 04:03:11;;;;;;;9.38;5.18;;;;;;;5.05;66.47;92412.41;5101734;28;20540;-40
2021/12/03 04:05:37;;;;;;;3.92;3.10;;;;;;;5.02;66.63;92400.56;5102369;28;20108;-40
2021/12/03 04:08:04;;;;;;;3.50;2.55;;;;;;;5.15;66.66;92407.94;5101676;28;20042;-38
2021/12/03 04:10:29;;;;;;;3.83;2.35;;;;;;;5.24;66.29;92378.06;5102875;28;20067;-38
2021/12/03 04:12:55;;;;;;;4.97;3.13;;;;;;;5.28;66.19;92396.88;5101591;28;20024;-39
2021/12/03 04:15:21;;;;;;;4.97;2.97;;;;;;;5.25;66.26;92406.91;5099584;27;20044;-38
2021/12/03 04:17:47;;;;;;;2.67;2.40;;;;;;;5.32;66.23;92413.69;5098683;28;20027;-39
2021/12/03 04:20:14;;;;;;;5.10;3.53;;;;;;;5.30;65.97;92413.50;5103232;28;20718;-39
2021/12/03 04:22:40;;;;;;;5.78;4.60;;;;;;;5.11;66.57;92396.63;5101073;28;20027;-40
2021/12/03 04:25:08;;;;;;;3.13;2.83;;;;;;;5.38;66.15;92390.34;5102274;28;20111;-39
2021/12/03 04:27:34;;;;;;;4.07;2.70;;;;;;;5.55;66.01;92406.31;5103214;28;20053;-39
2021/12/03 04:30:00;;;;;;;5.65;2.60;;;;;;;5.67;65.67;92391.03;5105605;28;20814;-39
2021/12/03 04:32:26;;;;;;;4.03;2.72;;;;;;;5.70;65.46;92395.41;5101365;28;20045;-42
2021/12/03 04:34:52;;;;;;;3.83;2.75;;;;;;;5.40;65.52;92384.34;5100765;28;20028;-40
2021/12/03 04:37:18;;;;;;;5.40;3.25;;;;;;;5.44;65.47;92417.56;5101604;28;20031;-40
2021/12/03 04:39:44;;;;;;;9.20;4.53;;;;;;;5.28;66.49;92410.56;5102450;28;20039;-44
2021/12/03 04:42:10;;;;;;;5.80;4.78;;;;;;;5.25;66.69;92412.38;5100339;28;20027;-46
2021/12/03 04:44:37;;;;;;;7.38;3.67;;;;;;;5.17;67.13;92413.59;5104347;28;20296;-42
2021/12/03 04:47:03;;;;;;;4.82;3.58;;;;;;;4.96;66.89;92375.34;5101068;28;20037;-45
2021/12/03 04:49:30;;;;;;;3.95;3.20;;;;;;;5.35;66.42;92426.28;5101297;28;20172;-41
2021/12/03 04:51:56;;;;;;;4.03;3.50;;;;;;;5.29;66.30;92445.59;5100457;28;20035;-42
2021/12/03 04:54:22;;;;;;;4.15;3.17;;;;;;;5.31;66.81;92434.09;5103086;28;20043;-42
2021/12/03 04:56:48;;;;;;;3.05;2.65;;;;;;;5.34;66.40;92438.50;5101642;28;20408;-41
2021/12/03 04:59:13;;;;;;;4.68;3.45;;;;;;;5.33;66.59;92431.56;5101386;28;20100;-40
2021/12/03 05:01:40;;;;;;;9.48;4.07;;;;;;;5.29;66.58;92439.38;5101218;28;20513;-44
2021/12/03 05:04:06;;;;;;;8.02;4.68;;;;;;;5.11;67.52;92438.34;5100016;28;20490;-39
2021/12/03 05:06:52;;;;;;;15.85;5.03;;;;;;;5.03;67.46;92434.84;5101310;28;20036;-39
2021/12/03 05:09:17;;;;;;;4.47;3.78;;;;;;;4.91;67.93;92441.91;5098744;28;20032;-39
2021/12/03 05:11:42;;;;;;;3.92;3.30;;;;;;;4.79;68.32;92439.97;5099782;28;20028;-39
2021/12/03 05:14:08;;;;;;;5.07;3.17;;;;;;;4.73;69.19;92453.78;5100349;27;20511;-39
2021/12/03 05:16:34;;;;;;;4.68;3.60;;;;;;;4.71;69.11;92448.13;5102859;28;20134;-40
2021/12/03 05:18:59;;;;;;;8.18;4.13;;;;;;;4.69;68.88;92441.72;5101284;28;20031;-40
2021/12/03 05:21:25;;;;;;;5.85;3.80;;;;;;;4.66;69.49;92437.31;5101192;28;20417;-37
2021/12/03 05:23:50;;;;;;;9.10;4.15;;;;;;;4.70;69.40;92437.72;5102433;28;20028;-41
2021/12/03 05:26:16;;;;;;;7.13;4.07;;;;;;;4.67;69.39;92449.72;5099132;28;20048;-43
2021/12/03 05:28:42;;;;;;;4.93;3.35;;;;;;;4.60;69.27;92442.91;5098127;28;20232;-40
2021/12/03 05:31:08;;;;;;;5.22;3.05;;;;;;;4.69;68.57;92409.66;5099133;28;20023;-41
2021/12/03 05:33:34;;;;;;;4.20;2.85;;;;;;;4.96;68.83;92437.56;5099072;28;20047;-41
2021/12/03 05:35:59;;;;;;;9.30;5.93;;;;;;;4.85;68.98;92429.63;5099879;28;20038;-41
2021/12/03 05:38:25;;;;;;;26.20;14.77;;;;;;;4.94;68.67;92448.25;5101395;28;20098;-41
2021/12/03 05:40:51;;;;;;;29.40;18.05;;;;;;;5.01;67.91;92458.53;5100936;28;20107;-41
2021/12/03 05:43:17;;;;;;;33.40;19.67;;;;;;;4.96;68.25;92459.44;5098497;28;20092;-42
2021/12/03 05:45:43;;;;;;;24.30;14.98;;;;;;;4.91;68.70;92471.97;5099958;28;20035;-43
2021/12/03 05:48:09;;;;;;;13.95;10.70;;;;;;;4.91;68.45;92484.91;5100616;28;20104;-42
2021/12/03 05:50:35;;;;;;;17.27;11.55;;;;;;;4.88;68.40;92483.25;5098392;28;20051;-43
2021/12/03 05:53:01;;;;;;;13.00;9.57;;;;;;;4.94;68.58;92492.03;5099707;28;20028;-42
2021/12/03 05:55:27;;;;;;;7.60;5.55;;;;;;;4.48;69.39;92461.59;5097115;28;20036;-41
2021/12/03 05:57:53;;;;;;;9.82;6.18;;;;;;;4.65;69.56;92487.78;5099188;28;20069;-41
2021/12/03 06:00:30;;;;;;;10.48;6.40;;;;;;;4.71;69.71;92489.13;5099563;28;20505;-39
2021/12/03 06:02:57;;;;;;;10.50;6.82;;;;;;;4.63;69.93;92482.88;5101331;28;20586;-43
2021/12/03 06:05:24;;;;;;;47.30;7.68;;;;;;;4.75;69.37;92491.50;5099950;28;20024;-42
2021/12/03 06:07:50;;;;;;;12.85;7.18;;;;;;;4.52;69.93;92467.47;5098020;28;20518;-46
2021/12/03 06:10:16;;;;;;;8.13;5.45;;;;;;;4.77;69.81;92488.97;5098567;28;20032;-42
2021/12/03 06:12:42;;;;;;;14.10;7.10;;;;;;;4.83;69.71;92500.53;5098806;28;20019;-44
2021/12/03 06:15:08;;;;;;;8.48;5.18;;;;;;;4.98;69.23;92501.38;5098841;28;20485;-41
2021/12/03 06:17:34;;;;;;;9.43;6.85;;;;;;;4.93;68.95;92498.78;5096680;28;20039;-41
2021/12/03 06:20:00;;;;;;;12.00;7.00;;;;;;;5.04;68.79;92503.97;5098927;28;20047;-44
2021/12/03 06:22:25;;;;;;;9.63;5.65;;;;;;;5.09;68.60;92500.38;5100141;28;20027;-42
2021/12/03 06:24:51;;;;;;;10.80;4.95;;;;;;;5.08;68.85;92512.56;5101033;28;20032;-41
2021/12/03 06:27:17;;;;;;;9.48;5.00;;;;;;;5.16;68.76;92505.16;5099859;28;20063;-41
2021/12/03 06:29:42;;;;;;;3.95;3.50;;;;;;;5.27;68.31;92494.66;5098945;28;20035;-39
2021/12/03 06:32:10;;;;;;;5.55;3.15;;;;;;;5.42;68.27;92499.50;5096730;28;20408;-39
2021/12/03 06:34:36;;;;;;;5.00;3.38;;;;;;;5.69;66.85;92500.75;5096117;28;20085;-40
2021/12/03 06:37:02;;;;;;;4.93;2.70;;;;;;;5.81;66.26;92499.16;5097342;28;20023;-39
2021/12/03 06:39:28;;;;;;;3.90;3.28;;;;;;;5.82;65.92;92503.38;5096446;28;20055;-39
2021/12/03 06:41:53;;;;;;;6.35;3.13;;;;;;;5.83;66.22;92515.03;5096261;28;20417;-39
2021/12/03 06:44:19;;;;;;;5.95;3.42;;;;;;;5.91;65.87;92521.34;5098483;28;20114;-39
2021/12/03 06:46:44;;;;;;;4.13;3.40;;;;;;;5.96;65.46;92526.66;5094555;28;20030;-39
2021/12/03 06:49:10;;;;;;;5.45;3.13;;;;;;;6.12;64.86;92530.19;5097614;28;20045;-39
2021/12/03 06:51:42;;;;;;;3.72;2.67;;;;;;;6.15;64.40;92533.88;5096182;28;20027;-38
2021/12/03 06:54:09;;;;;;;4.55;3.70;;;;;;;6.15;64.77;92529.09;5094385;28;20051;-40
2021/12/03 06:56:47;;;;;;;3.67;2.90;;;;;;;6.14;64.40;92530.38;5097682;28;20474;-39
2021/12/03 06:59:15;;;;;;;6.22;2.88;;;;;;;6.10;64.61;92551.94;5097826;28;20114;-39
2021/12/03 07:01:40;;;;;;;5.18;4.30;;;;;;;6.08;64.77;92551.72;5097772;28;20043;-38
2021/12/03 07:04:06;;;;;;;10.77;6.47;;;;;;;6.02;65.17;92532.69;5097147;28;20472;-39
2021/12/03 07:06:31;;;;;;;6.75;4.25;;;;;;;6.00;66.08;92548.22;5096892;28;20016;-39
2021/12/03 07:08:57;;;;;;;10.65;6.68;;;;;;;6.19;64.66;92567.88;5096973;28;20035;-39
2021/12/03 07:11:22;;;;;;;10.52;6.55;;;;;;;6.21;65.50;92565.31;5099285;28;20024;-39
2021/12/03 07:13:48;;;;;;;21.25;11.68;;;;;;;6.26;65.20;92560.94;5096976;28;20020;-42
2021/12/03 07:16:14;;;;;;;51.42;27.42;;;;;;;6.38;65.79;92565.56;5098305;28;20130;-39
2021/12/03 07:18:39;;;;;;;26.77;8.70;;;;;;;6.44;65.67;92557.91;5098809;28;20516;-39
2021/12/03 07:21:05;;;;;;;17.55;8.80;;;;;;;6.69;64.57;92569.84;5095992;28;20024;-39
2021/12/03 07:23:31;;;;;;;18.52;8.75;;;;;;;6.71;64.34;92564.53;5093678;28;20011;-38
2021/12/03 07:25:59;;;;;;;6.90;5.28;;;;;;;6.88;63.49;92577.78;5096579;28;20492;-42
2021/12/03 07:28:24;;;;;;;8.27;3.25;;;;;;;6.97;63.29;92577.25;5094728;28;20036;-43
2021/12/03 07:30:50;;;;;;;7.25;3.10;;;;;;;6.98;62.81;92575.94;5095763;28;20035;-41
2021/12/03 07:33:17;;;;;;;3.50;2.70;;;;;;;6.85;63.69;92563.13;5097657;28;20024;-39
2021/12/03 07:35:45;;;;;;;5.43;2.67;;;;;;;6.98;63.41;92564.97;5094015;28;20031;-41
2021/12/03 07:38:11;;;;;;;5.18;2.75;;;;;;;7.19;62.74;92551.09;5097626;28;20019;-40
2021/12/03 07:40:37;;;;;;;8.20;2.58;;;;;;;7.37;62.04;92556.22;5097606;28;20501;-40
2021/12/03 07:43:03;;;;;;;3.42;2.65;;;;;;;7.52;61.90;92558.97;5094328;28;20031;-41
2021/12/03 07:45:29;;;;;;;3.92;3.08;;;;;;;7.52;61.93;92572.69;5097227;28;20097;-40
2021/12/03 07:47:55;;;;;;;3.95;2.60;;;;;;;7.59;61.60;92552.72;5096841;28;20024;-43
2021/12/03 07:50:21;;;;;;;4.43;3.30;;;;;;;7.75;61.77;92547.22;5097692;28;20027;-41
2021/12/03 07:52:47;;;;;;;5.20;3.65;;;;;;;8.12;60.45;92552.63;5094721;28;20111;-43
2021/12/03 07:55:12;;;;;;;4.03;2.42;;;;;;;8.31;60.05;92569.47;5096127;28;20115;-42
2021/12/03 07:57:38;;;;;;;4.10;2.80;;;;;;;8.66;58.68;92567.69;5098079;28;20034;-40
2021/12/03 08:00:06;;;;;;;9.65;3.70;;;;;;;8.90;58.97;92555.25;5093186;28;20177;-41
2021/12/03 08:02:32;;;;;;;10.88;5.82;;;;;;;9.09;57.66;92550.72;5096198;28;20039;-43
2021/12/03 08:04:57;;;;;;;6.07;4.60;;;;;;;9.39;57.49;92565.56;5096861;28;20412;-41
2021/12/03 08:07:23;;;;;;;7.82;2.65;;;;;;;9.41;57.50;92572.00;5095250;28;20040;-38
2021/12/03 08:09:49;;;;;;;5.90;3.50;;;;;;;10.03;56.41;92572.94;5095691;28;20027;-42
2021/12/03 08:22:50;;;;;;;9.95;4.97;;;;;;;13.21;46.14;92539.75;5119377;27;20633;-44
2021/12/03 08:25:16;;;;;;;5.00;3.10;;;;;;;13.53;46.53;92555.13;5107805;27;20032;-44
2021/12/03 08:27:41;;;;;;;4.65;2.83;;;;;;;13.20;45.33;92560.47;5105657;28;20043;-44
2021/12/03 08:30:09;;;;;;;17.45;14.95;;;;;;;13.04;45.77;92536.44;5104892;28;20036;-39
2021/12/03 08:32:35;;;;;;;8.32;4.35;;;;;;;13.55;46.12;92572.63;5103727;28;20032;-41
2021/12/03 08:35:00;;;;;;;15.40;4.70;;;;;;;13.65;45.63;92570.53;5103981;28;20336;-41
2021/12/03 08:37:26;;;;;;;9.45;2.97;;;;;;;13.41;44.76;92559.81;5105748;28;20341;-43
2021/12/03 08:39:51;;;;;;;5.13;2.33;;;;;;;12.88;45.33;92574.78;5105215;28;20027;-41
2021/12/03 08:42:18;;;;;;;4.75;3.33;;;;;;;12.33;47.00;92572.88;5105834;28;20107;-42
2021/12/03 08:44:44;;;;;;;2.47;1.98;;;;;;;12.33;47.10;92561.09;5102294;28;20107;-42
2021/12/03 08:47:09;;;;;;;3.13;1.70;;;;;;;12.18;47.93;92551.75;5103620;28;20039;-39
2021/12/03 08:49:38;;;;;;;5.43;2.40;;;;;;;12.49;47.78;92559.50;5104791;28;20122;-48
2021/12/03 08:52:20;;;;;;;5.28;2.25;;;;;;;12.88;46.59;92536.75;5105159;28;20031;-46
2021/12/03 08:57:24;;;;;;;2.90;2.03;;;;;;;13.19;45.79;92538.91;5105146;28;20027;-49
2021/12/03 08:59:58;;;;;;;6.82;2.25;;;;;;;13.12;46.09;92543.28;5107444;28;20506;-48
2021/12/03 09:02:24;;;;;;;3.30;1.73;;;;;;;13.17;45.58;92536.69;5109688;28;20032;-47
2021/12/03 09:04:50;;;;;;;5.00;2.05;;;;;;;13.21;45.67;92527.94;5105008;28;20028;-50
2021/12/03 09:07:16;;;;;;;2.72;2.15;;;;;;;13.49;45.20;92541.69;5104798;28;20511;-44
2021/12/03 09:09:41;;;;;;;5.57;2.08;;;;;;;13.88;45.05;92536.69;5104963;28;20059;-42
2021/12/03 09:12:07;;;;;;;3.95;2.08;;;;;;;14.23;43.62;92548.03;5104163;28;20102;-44
2021/12/03 09:14:57;;;;;;;3.63;2.00;;;;;;;13.77;44.11;92534.59;5104518;28;20111;-39
2021/12/03 09:22:31;;;;;;;1.80;1.70;;;;;;;12.95;47.10;92557.25;5099280;28;20043;-45
2021/12/03 09:24:57;;;;;;;2.10;1.73;;;;;;;13.33;45.86;92562.78;5090609;28;20426;-47
2021/12/03 09:27:23;;;;;;;2.95;2.00;;;;;;;13.25;45.75;92556.69;5090723;28;20020;-46
2021/12/03 09:29:50;;;;;;;5.32;2.20;;;;;;;12.75;47.03;92551.06;5090928;28;20066;-46
2021/12/03 09:32:22;;;;;;;3.65;2.22;;;;;;;12.56;48.84;92558.63;5088490;28;20512;-49
2021/12/03 09:34:47;;;;;;;8.13;5.82;;;;;;;13.04;49.22;92542.66;5090973;28;20058;-46
2021/12/03 09:37:13;;;;;;;79.57;55.00;;;;;;;13.32;48.07;92541.91;5090414;28;20500;-48
2021/12/03 09:39:44;;;;;;;5.00;3.35;;;;;;;13.49;46.30;92525.06;5090988;28;20047;-47
2021/12/03 09:42:09;;;;;;;12.65;9.38;;;;;;;13.71;46.69;92527.91;5090320;28;20021;-44
2021/12/03 09:44:39;;;;;;;17.17;4.20;;;;;;;14.04;46.31;92535.00;5090147;28;20031;-47
2021/12/03 09:47:06;;;;;;;4.15;2.58;;;;;;;14.35;45.67;92541.28;5090195;28;20504;-46
2021/12/03 09:49:35;;;;;;;4.80;3.13;;;;;;;14.60;44.60;92554.66;5090178;28;20023;-50
2021/12/03 09:54:43;;;;;;;6.47;3.78;;;;;;;14.48;45.82;92542.78;5109738;28;20031;-45
2021/12/03 09:57:15;;;;;;;6.38;2.95;;;;;;;13.71;46.69;92553.56;5098068;28;20439;-46
2021/12/03 10:17:21;;;;;;;3.90;2.15;;;;;;;13.54;45.79;92543.44;5097684;28;20036;-46
2021/12/03 10:19:36;;;;;;;4.03;2.65;;;;;;;13.52;47.08;92534.97;5078270;28;20040;-45
2021/12/03 10:25:10;;;;;;;3.00;2.70;;;;;;;12.97;48.28;92540.06;5051286;28;20048;-44
2021/12/03 10:44:12;;;;;;;7.43;2.70;;;;;;;12.42;50.64;92529.91;5069400;28;20032;-41
2021/12/03 11:25:49;;;;;;;5.20;2.50;;;;;;;11.16;53.12;92549.50;5071023;28;20050;-43
2021/12/03 14:56:06;;;;;;;7.63;4.80;;;;;;;8.78;62.34;92568.72;5076364;28;20038;-47
2021/12/03 15:07:16;;;;;;;8.40;5.97;;;;;;;8.85;62.34;92580.97;5076128;28;20515;-42
2021/12/03 15:09:44;;;;;;;19.48;6.20;;;;;;;8.79;62.86;92575.66;5078262;28;20505;-41
2021/12/03 15:21:17;;;;;;;59.90;31.83;;;;;;;8.64;63.77;92588.78;5052846;28;20036;-47
2021/12/03 15:23:30;;;;;;;41.67;23.88;;;;;;;8.68;64.31;92580.88;5071810;28;20077;-42
2021/12/03 15:31:02;;;;;;;39.63;26.35;;;;;;;8.59;63.79;92584.94;5073413;28;20111;-45
2021/12/03 16:03:32;;;;;;;48.72;25.45;;;;;;;8.06;67.93;92598.81;5076943;28;20592;-45
2021/12/03 16:53:00;;;;;;;29.30;17.27;;;;;;;7.48;68.49;92651.25;5079984;28;20501;-44
2021/12/03 16:55:26;;;;;;;15.48;9.65;;;;;;;7.24;69.43;92665.47;5060648;28;20028;-46
2021/12/03 16:57:54;;;;;;;12.52;8.00;;;;;;;7.28;69.15;92669.34;5079344;28;20028;-43
2021/12/03 17:00:30;;;;;;;14.35;7.03;;;;;;;7.36;68.46;92658.38;5077453;28;20032;-42
2021/12/03 17:03:21;;;;;;;17.33;8.32;;;;;;;7.35;68.95;92668.63;5079931;28;20028;-43
2021/12/03 17:11:29;;;;;;;18.00;10.53;;;;;;;7.24;69.63;92695.69;5076732;28;20020;-45
2021/12/03 17:22:18;;;;;;;13.18;8.75;;;;;;;6.98;70.43;92688.47;5076366;28;20105;-44
2021/12/03 17:48:47;;;;;;;18.75;11.20;;;;;;;6.72;72.08;92725.13;5080834;28;20070;-42
2021/12/03 17:51:36;;;;;;;18.80;11.00;;;;;;;6.51;71.78;92718.25;5079483;28;20016;-42
2021/12/03 17:56:45;;;;;;;11.40;8.13;;;;;;;6.50;72.77;92749.66;5081144;28;20033;-43
2021/12/03 17:59:19;;;;;;;10.95;7.82;;;;;;;6.51;72.69;92742.94;5075978;28;20263;-41
2021/12/03 18:01:50;;;;;;;11.40;8.45;;;;;;;6.42;73.34;92746.91;5079226;28;20044;-40
2021/12/03 18:47:25;;;;;;;10.15;8.25;;;;;;;6.57;74.01;92749.72;5075979;28;20033;-46
2021/12/03 18:50:45;;;;;;;31.50;16.55;;;;;;;6.57;74.06;92757.22;5077238;28;20036;-42
2021/12/03 18:52:50;;;;;;;22.90;15.48;;;;;;;6.49;73.66;92757.19;5083605;28;20055;-42
2021/12/03 18:55:31;;;;;;;14.63;10.23;;;;;;;6.47;74.03;92750.78;5076716;28;20032;-42
2021/12/03 18:58:04;;;;;;;17.42;9.77;;;;;;;6.45;73.85;92751.31;5074485;28;20481;-44
2021/12/03 19:00:34;;;;;;;13.75;7.57;;;;;;;6.39;74.20;92747.25;5076741;28;20028;-42
2021/12/03 19:03:04;;;;;;;7.75;6.22;;;;;;;6.36;74.10;92734.59;5075596;28;20035;-43
2021/12/03 19:08:06;;;;;;;15.35;10.60;;;;;;;6.38;74.37;92748.50;5076765;28;20028;-43
2021/12/03 19:10:34;;;;;;;24.73;13.70;;;;;;;6.45;74.09;92747.84;5074997;28;20028;-44
2021/12/03 19:13:04;;;;;;;18.92;12.40;;;;;;;6.37;74.08;92753.25;5075339;28;20028;-42
2021/12/03 19:15:30;;;;;;;17.85;8.93;;;;;;;6.39;74.56;92760.97;5076890;28;20126;-42
2021/12/03 19:18:01;;;;;;;10.07;8.40;;;;;;;6.32;74.87;92773.34;5076204;28;20027;-44
2021/12/03 19:20:29;;;;;;;53.35;34.72;;;;;;;6.35;74.67;92772.25;5073362;28;20421;-46
2021/12/03 19:22:54;;;;;;;21.50;12.70;;;;;;;6.37;74.66;92777.94;5075761;28;20074;-42
2021/12/03 19:25:20;;;;;;;10.30;8.80;;;;;;;6.27;75.06;92776.94;5074296;28;20028;-42
2021/12/03 19:27:46;;;;;;;10.18;8.00;;;;;;;6.34;74.97;92781.75;5075129;28;20408;-44
2021/12/03 19:30:15;;;;;;;21.00;14.70;;;;;;;6.36;75.09;92789.44;5075901;28;20539;-43
2021/12/03 19:32:41;;;;;;;;;;;;;;;6.48;74.73;92796.84;5080711;28;20016;-43
2021/12/03 19:35:08;;;;;;;28.08;20.27;;;;;;;6.64;74.24;92792.19;5076644;28;19916;-40
2021/12/03 19:37:35;;;;;;;29.13;19.92;;;;;;;6.62;74.43;92800.97;5075701;28;20421;-43
2021/12/03 19:40:04;;;;;;;28.05;16.83;;;;;;;6.67;74.23;92800.06;5077592;28;20024;-43
2021/12/03 19:42:37;;;;;;;17.48;11.88;;;;;;;6.67;74.43;92813.06;5079973;28;20021;-43
2021/12/03 19:45:07;;;;;;;14.75;9.88;;;;;;;6.61;74.46;92810.47;5077078;28;20031;-45
2021/12/03 19:47:48;;;;;;;13.27;10.40;;;;;;;6.63;74.44;92824.38;5074792;28;20033;-42